Akwesasne, New York
Current Conditions -  °F | °C
As of 5:53 AM on Thursday 27 Nov 2014 (Local Time) from KMSS Reporting Station
Overcast Overcast  
Wind Chill: -6°   Ceiling: 3300
Heat Index: -2°   Visibility: 10mi
Dew Point: -6°   Wind: 7mph
Humidity: 72%   Direction: 340°NNW
Pressure: 30.03"   Gusts: NA
Location:  44.9835°N, 74.6107°W
Report Text: KMSS 271053Z AUTO 34006KT 10SM OVC033 M02/M06 A3003 RMK AO2 SLP175 T10171061
Loading
Personal Weather Stations






























Interactive Weather Map New forecast layout! Learn more

10-Day Weather Forecast

Advertisements
Track Severe Weather on mobile